PWSweather.com
Personal Weather Stations
Station Observations
GRD01
Warsaw, LesznoPL 05-084

WarsawLesznoPL 05-084

Lat: 52.257404, Lon: 20.564847

Elevation: 298

Station Type: WH3080

http://pogoda.kampinos.waw.pl

High Low Average
Temperature 37.0°F2.8°F 23.7°F-4.6°F 29.8°F-1.2°F
Dew Point 28.0°F-2.2°F 17.6°F-8.0°F 22.8°F-5.1°F
Winds 8.3 mph -13.4 mph - Calm Calm 2.9 mph 4.7 mph
Wind Gusts 11.4 mph18.3 mph 1.6 mph2.6 mph 5.8 mph9.3 mph
Humidity 82% 63% 75%
Pressure 30.24 in1024.00 in 29.91 in1012.90 in -
Precipitation 0.00 in0.00 in - -
Hour Temp Dew Point Humidity Winds Wind Gusts Pressure Precip Precip Rate Daily Precip Total
12:00 AM 29.3°F-1.5°C 23.3°F-4.8°C 78% 1.6 mph S2.6 kmh S 3.1 mph5.0 kmh 30.24 in1024.0 mb 0.00 in0.0 mm 0.00 in0.0 mm 0.00 in0.0 mm
12:15 AM 29.3°F-1.5°C 23.6°F-4.7°C 79% 1.6 mph SSW2.6 kmh SSW 3.8 mph6.1 kmh 30.23 in1023.7 mb 0.00 in0.0 mm 0.00 in0.0 mm 0.00 in0.0 mm
12:30 AM 29.3°F-1.5°C 23.6°F-4.7°C 79% 0.7 mph SSW1.1 kmh SSW 3.1 mph5.0 kmh 30.23 in1023.7 mb 0.00 in0.0 mm 0.00 in0.0 mm 0.00 in0.0 mm
12:45 AM 29.1°F-1.6°C 23.7°F-4.6°C 80% 1.6 mph SSW2.6 kmh SSW 3.8 mph6.1 kmh 30.24 in1024.0 mb 0.00 in0.0 mm 0.00 in0.0 mm 0.00 in0.0 mm
01:00 AM 28.9°F-1.7°C 23.5°F-4.7°C 80% 0.7 mph SW1.1 kmh SW 2.2 mph3.5 kmh 30.24 in1024.0 mb 0.00 in0.0 mm 0.00 in0.0 mm 0.00 in0.0 mm
01:15 AM 28.8°F-1.8°C 23.4°F-4.8°C 80% 0.7 mph S1.1 kmh S 2.2 mph3.5 kmh 30.23 in1023.7 mb 0.00 in0.0 mm 0.00 in0.0 mm 0.00 in0.0 mm
01:30 AM 28.6°F-1.9°C 23.2°F-4.9°C 80% 0.7 mph S1.1 kmh S 2.2 mph3.5 kmh 30.24 in1024.0 mb 0.00 in0.0 mm 0.00 in0.0 mm 0.00 in0.0 mm
01:45 AM 28.2°F-2.1°C 22.8°F-5.1°C 80% Calm Calm 1.6 mph2.6 kmh 30.24 in1024.0 mb 0.00 in0.0 mm 0.00 in0.0 mm 0.00 in0.0 mm
02:00 AM 27.7°F-2.4°C 22.0°F-5.6°C 79% Calm Calm 1.6 mph2.6 kmh 30.23 in1023.7 mb 0.00 in0.0 mm 0.00 in0.0 mm 0.00 in0.0 mm
02:15 AM 27.3°F-2.6°C 21.7°F-5.7°C 79% Calm Calm 1.6 mph2.6 kmh 30.22 in1023.4 mb 0.00 in0.0 mm 0.00 in0.0 mm 0.00 in0.0 mm
02:30 AM 27.0°F-2.8°C 21.3°F-5.9°C 79% Calm Calm 1.6 mph2.6 kmh 30.23 in1023.7 mb 0.00 in0.0 mm 0.00 in0.0 mm 0.00 in0.0 mm
02:45 AM 26.6°F-3.0°C 21.0°F-6.1°C 79% Calm Calm 1.6 mph2.6 kmh 30.22 in1023.4 mb 0.00 in0.0 mm 0.00 in0.0 mm 0.00 in0.0 mm
03:00 AM 26.2°F-3.2°C 20.3°F-6.5°C 78% Calm Calm 1.6 mph2.6 kmh 30.23 in1023.7 mb 0.00 in0.0 mm 0.00 in0.0 mm 0.00 in0.0 mm
03:15 AM 26.1°F-3.3°C 20.1°F-6.6°C 78% 0.7 mph S1.1 kmh S 2.2 mph3.5 kmh 30.22 in1023.4 mb 0.00 in0.0 mm 0.00 in0.0 mm 0.00 in0.0 mm
03:30 AM 25.7°F-3.5°C 19.8°F-6.8°C 78% 0.7 mph S1.1 kmh S 2.2 mph3.5 kmh 30.22 in1023.4 mb 0.00 in0.0 mm 0.00 in0.0 mm 0.00 in0.0 mm
03:45 AM 25.3°F-3.7°C 19.4°F-7.0°C 78% 0.7 mph S1.1 kmh S 2.2 mph3.5 kmh 30.21 in1023.0 mb 0.00 in0.0 mm 0.00 in0.0 mm 0.00 in0.0 mm
04:00 AM 25.2°F-3.8°C 19.3°F-7.1°C 78% 0.7 mph S1.1 kmh S 1.6 mph2.6 kmh 30.21 in1023.0 mb 0.00 in0.0 mm 0.00 in0.0 mm 0.00 in0.0 mm
04:15 AM 25.0°F-3.9°C 19.1°F-7.2°C 78% 0.7 mph S1.1 kmh S 2.2 mph3.5 kmh 30.21 in1023.0 mb 0.00 in0.0 mm 0.00 in0.0 mm 0.00 in0.0 mm
04:30 AM 25.0°F-3.9°C 19.1°F-7.2°C 78% Calm Calm 2.2 mph3.5 kmh 30.21 in1023.0 mb 0.00 in0.0 mm 0.00 in0.0 mm 0.00 in0.0 mm
04:45 AM 24.6°F-4.1°C 18.7°F-7.4°C 78% 1.6 mph S2.6 kmh S 2.2 mph3.5 kmh 30.21 in1023.0 mb 0.00 in0.0 mm 0.00 in0.0 mm 0.00 in0.0 mm
05:00 AM 24.4°F-4.2°C 18.6°F-7.4°C 78% 0.7 mph S1.1 kmh S 2.2 mph3.5 kmh 30.21 in1023.0 mb 0.00 in0.0 mm 0.00 in0.0 mm 0.00 in0.0 mm
05:15 AM 24.4°F-4.2°C 18.6°F-7.4°C 78% 1.6 mph S2.6 kmh S 2.2 mph3.5 kmh 30.20 in1022.7 mb 0.00 in0.0 mm 0.00 in0.0 mm 0.00 in0.0 mm
05:30 AM 24.3°F-4.3°C 18.4°F-7.6°C 78% 0.7 mph S1.1 kmh S 2.2 mph3.5 kmh 30.20 in1022.7 mb 0.00 in0.0 mm 0.00 in0.0 mm 0.00 in0.0 mm
05:45 AM 24.1°F-4.4°C 18.2°F-7.7°C 78% 0.7 mph S1.1 kmh S 1.6 mph2.6 kmh 30.20 in1022.7 mb 0.00 in0.0 mm 0.00 in0.0 mm 0.00 in0.0 mm
06:00 AM 23.7°F-4.6°C 17.6°F-8.0°C 77% 2.2 mph SSE3.5 kmh SSE 3.1 mph5.0 kmh 30.20 in1022.7 mb 0.00 in0.0 mm 0.00 in0.0 mm 0.00 in0.0 mm
06:15 AM 24.4°F-4.2°C 18.6°F-7.4°C 78% 2.2 mph SE3.5 kmh SE 3.8 mph6.1 kmh 30.19 in1022.4 mb 0.00 in0.0 mm 0.00 in0.0 mm 0.00 in0.0 mm
06:30 AM 24.8°F-4.0°C 19.2°F-7.1°C 79% 1.6 mph SE2.6 kmh SE 3.1 mph5.0 kmh 30.19 in1022.4 mb 0.00 in0.0 mm 0.00 in0.0 mm 0.00 in0.0 mm
06:45 AM 25.0°F-3.9°C 19.4°F-7.0°C 79% 1.6 mph SE2.6 kmh SE 3.1 mph5.0 kmh 30.18 in1022.0 mb 0.00 in0.0 mm 0.00 in0.0 mm 0.00 in0.0 mm
07:00 AM 25.0°F-3.9°C 19.7°F-6.8°C 80% 1.6 mph ESE2.6 kmh ESE 2.2 mph3.5 kmh 30.19 in1022.4 mb 0.00 in0.0 mm 0.00 in0.0 mm 0.00 in0.0 mm
07:15 AM 24.8°F-4.0°C 19.2°F-7.1°C 79% 1.6 mph SE2.6 kmh SE 2.2 mph3.5 kmh 30.18 in1022.0 mb 0.00 in0.0 mm 0.00 in0.0 mm 0.00 in0.0 mm
07:30 AM 24.8°F-4.0°C 19.2°F-7.1°C 79% 1.6 mph ESE2.6 kmh ESE 2.2 mph3.5 kmh 30.18 in1022.0 mb 0.00 in0.0 mm 0.00 in0.0 mm 0.00 in0.0 mm
07:45 AM 24.4°F-4.2°C 18.9°F-7.3°C 79% Calm Calm 2.2 mph3.5 kmh 30.18 in1022.0 mb 0.00 in0.0 mm 0.00 in0.0 mm 0.00 in0.0 mm
08:00 AM 24.3°F-4.3°C 18.7°F-7.4°C 79% 0.7 mph SE1.1 kmh SE 2.2 mph3.5 kmh 30.18 in1022.0 mb 0.00 in0.0 mm 0.00 in0.0 mm 0.00 in0.0 mm
08:15 AM 24.3°F-4.3°C 18.7°F-7.4°C 79% 0.7 mph SE1.1 kmh SE 2.2 mph3.5 kmh 30.17 in1021.7 mb 0.00 in0.0 mm 0.00 in0.0 mm 0.00 in0.0 mm
08:30 AM 24.4°F-4.2°C 18.9°F-7.3°C 79% Calm Calm 1.6 mph2.6 kmh 30.17 in1021.7 mb 0.00 in0.0 mm 0.00 in0.0 mm 0.00 in0.0 mm
08:45 AM 25.0°F-3.9°C 19.7°F-6.8°C 80% 1.6 mph SE2.6 kmh SE 2.2 mph3.5 kmh 30.17 in1021.7 mb 0.00 in0.0 mm 0.00 in0.0 mm 0.00 in0.0 mm
09:00 AM 26.2°F-3.2°C 20.9°F-6.2°C 80% 0.7 mph S1.1 kmh S 2.2 mph3.5 kmh 30.17 in1021.7 mb 0.00 in0.0 mm 0.00 in0.0 mm 0.00 in0.0 mm
09:15 AM 27.5°F-2.5°C 22.1°F-5.5°C 80% 1.6 mph S2.6 kmh S 2.2 mph3.5 kmh 30.17 in1021.7 mb 0.00 in0.0 mm 0.00 in0.0 mm 0.00 in0.0 mm
09:30 AM 28.8°F-1.8°C 23.7°F-4.6°C 81% 0.7 mph S1.1 kmh S 4.5 mph7.2 kmh 30.17 in1021.7 mb 0.00 in0.0 mm 0.00 in0.0 mm 0.00 in0.0 mm
09:45 AM 29.8°F-1.2°C 24.7°F-4.1°C 81% 2.2 mph S3.5 kmh S 3.8 mph6.1 kmh 30.17 in1021.7 mb 0.00 in0.0 mm 0.00 in0.0 mm 0.00 in0.0 mm
10:00 AM 30.9°F-0.6°C 25.8°F-3.4°C 81% 3.1 mph S5.0 kmh S 6.0 mph9.7 kmh 30.16 in1021.3 mb 0.00 in0.0 mm 0.00 in0.0 mm 0.00 in0.0 mm
10:15 AM 32.2°F0.1°C 27.3°F-2.6°C 82% 2.2 mph S3.5 kmh S 6.0 mph9.7 kmh 30.15 in1021.0 mb 0.00 in0.0 mm 0.00 in0.0 mm 0.00 in0.0 mm
10:30 AM 32.9°F0.5°C 27.7°F-2.4°C 81% 4.5 mph SE7.2 kmh SE 6.9 mph11.1 kmh 30.15 in1021.0 mb 0.00 in0.0 mm 0.00 in0.0 mm 0.00 in0.0 mm
10:45 AM 33.1°F0.6°C 27.6°F-2.4°C 80% 3.1 mph S5.0 kmh S 6.0 mph9.7 kmh 30.15 in1021.0 mb 0.00 in0.0 mm 0.00 in0.0 mm 0.00 in0.0 mm
11:00 AM 33.8°F1.0°C 28.0°F-2.2°C 79% 2.2 mph S3.5 kmh S 7.6 mph12.2 kmh 30.14 in1020.7 mb 0.00 in0.0 mm 0.00 in0.0 mm 0.00 in0.0 mm
11:15 AM 34.5°F1.4°C 27.7°F-2.4°C 76% 3.8 mph S6.1 kmh S 8.3 mph13.4 kmh 30.13 in1020.3 mb 0.00 in0.0 mm 0.00 in0.0 mm 0.00 in0.0 mm
11:30 AM 35.1°F1.7°C 27.6°F-2.4°C 74% 3.1 mph SE5.0 kmh SE 9.2 mph14.8 kmh 30.12 in1020.0 mb 0.00 in0.0 mm 0.00 in0.0 mm 0.00 in0.0 mm
11:45 AM 35.4°F1.9°C 27.3°F-2.6°C 72% 4.5 mph SSW7.2 kmh SSW 9.2 mph14.8 kmh 30.11 in1019.6 mb 0.00 in0.0 mm 0.00 in0.0 mm 0.00 in0.0 mm
12:00 PM 35.6°F2.0°C 26.8°F-2.9°C 70% 2.2 mph SSE3.5 kmh SSE 9.8 mph15.8 kmh 30.11 in1019.6 mb 0.00 in0.0 mm 0.00 in0.0 mm 0.00 in0.0 mm
12:15 PM 36.0°F2.2°C 27.1°F-2.7°C 70% 5.4 mph S8.7 kmh S 9.2 mph14.8 kmh 30.10 in1019.3 mb 0.00 in0.0 mm 0.00 in0.0 mm 0.00 in0.0 mm
12:30 PM 36.3°F2.4°C 27.1°F-2.7°C 69% 6.0 mph SSE9.7 kmh SSE 8.3 mph13.4 kmh 30.10 in1019.3 mb 0.00 in0.0 mm 0.00 in0.0 mm 0.00 in0.0 mm
12:45 PM 36.5°F2.5°C 26.9°F-2.8°C 68% 1.6 mph SE2.6 kmh SE 7.6 mph12.2 kmh 30.09 in1019.0 mb 0.00 in0.0 mm 0.00 in0.0 mm 0.00 in0.0 mm
01:00 PM 36.9°F2.7°C 26.9°F-2.8°C 67% 5.4 mph SE8.7 kmh SE 7.6 mph12.2 kmh 30.09 in1019.0 mb 0.00 in0.0 mm 0.00 in0.0 mm 0.00 in0.0 mm
01:15 PM 36.7°F2.6°C 26.4°F-3.1°C 66% 3.1 mph ESE5.0 kmh ESE 10.7 mph17.2 kmh 30.09 in1019.0 mb 0.00 in0.0 mm 0.00 in0.0 mm 0.00 in0.0 mm
01:30 PM 36.9°F2.7°C 26.2°F-3.2°C 65% 4.5 mph SE7.2 kmh SE 9.2 mph14.8 kmh 30.08 in1018.6 mb 0.00 in0.0 mm 0.00 in0.0 mm 0.00 in0.0 mm
01:45 PM 37.0°F2.8°C 26.0°F-3.3°C 64% 4.5 mph S7.2 kmh S 7.6 mph12.2 kmh 30.08 in1018.6 mb 0.00 in0.0 mm 0.00 in0.0 mm 0.00 in0.0 mm
02:00 PM 36.7°F2.6°C 25.6°F-3.6°C 64% 6.0 mph S9.7 kmh S 8.3 mph13.4 kmh 30.08 in1018.6 mb 0.00 in0.0 mm 0.00 in0.0 mm 0.00 in0.0 mm
02:15 PM 36.3°F2.4°C 24.9°F-3.9°C 63% 3.8 mph SSE6.1 kmh SSE 8.3 mph13.4 kmh 30.07 in1018.3 mb 0.00 in0.0 mm 0.00 in0.0 mm 0.00 in0.0 mm
02:30 PM 36.0°F2.2°C 25.0°F-3.9°C 64% 6.0 mph S9.7 kmh S 7.6 mph12.2 kmh 30.07 in1018.3 mb 0.00 in0.0 mm 0.00 in0.0 mm 0.00 in0.0 mm
02:45 PM 35.6°F2.0°C 24.6°F-4.1°C 64% 3.1 mph S5.0 kmh S 5.4 mph8.7 kmh 30.06 in1017.9 mb 0.00 in0.0 mm 0.00 in0.0 mm 0.00 in0.0 mm
03:00 PM 34.9°F1.6°C 23.9°F-4.5°C 64% 3.8 mph S6.1 kmh S 7.6 mph12.2 kmh 30.06 in1017.9 mb 0.00 in0.0 mm 0.00 in0.0 mm 0.00 in0.0 mm
03:15 PM 34.3°F1.3°C 23.0°F-5.0°C 63% 4.5 mph SSE7.2 kmh SSE 7.6 mph12.2 kmh 30.05 in1017.6 mb 0.00 in0.0 mm 0.00 in0.0 mm 0.00 in0.0 mm
03:30 PM 33.6°F0.9°C 22.7°F-5.2°C 64% 3.8 mph SE6.1 kmh SE 6.9 mph11.1 kmh 30.05 in1017.6 mb 0.00 in0.0 mm 0.00 in0.0 mm 0.00 in0.0 mm
03:45 PM 33.1°F0.6°C 22.6°F-5.2°C 65% 3.1 mph S5.0 kmh S 5.4 mph8.7 kmh 30.04 in1017.3 mb 0.00 in0.0 mm 0.00 in0.0 mm 0.00 in0.0 mm
04:00 PM 32.4°F0.2°C 22.3°F-5.4°C 66% 2.2 mph SSE3.5 kmh SSE 5.4 mph8.7 kmh 30.05 in1017.6 mb 0.00 in0.0 mm 0.00 in0.0 mm 0.00 in0.0 mm
04:15 PM 31.8°F-0.1°C 22.1°F-5.5°C 67% 2.2 mph SSE3.5 kmh SSE 4.5 mph7.2 kmh 30.04 in1017.3 mb 0.00 in0.0 mm 0.00 in0.0 mm 0.00 in0.0 mm
04:30 PM 31.5°F-0.3°C 22.1°F-5.5°C 68% 3.1 mph SE5.0 kmh SE 4.5 mph7.2 kmh 30.04 in1017.3 mb 0.00 in0.0 mm 0.00 in0.0 mm 0.00 in0.0 mm
04:45 PM 31.1°F-0.5°C 21.8°F-5.7°C 68% 3.8 mph SE6.1 kmh SE 6.0 mph9.7 kmh 30.03 in1016.9 mb 0.00 in0.0 mm 0.00 in0.0 mm 0.00 in0.0 mm
05:00 PM 31.3°F-0.4°C 22.3°F-5.4°C 69% 4.5 mph SE7.2 kmh SE 9.2 mph14.8 kmh 30.03 in1016.9 mb 0.00 in0.0 mm 0.00 in0.0 mm 0.00 in0.0 mm
05:15 PM 31.3°F-0.4°C 22.6°F-5.2°C 70% 4.5 mph SE7.2 kmh SE 9.2 mph14.8 kmh 30.02 in1016.6 mb 0.00 in0.0 mm 0.00 in0.0 mm 0.00 in0.0 mm
05:30 PM 31.3°F-0.4°C 22.6°F-5.2°C 70% 6.9 mph SE11.1 kmh SE 9.8 mph15.8 kmh 30.02 in1016.6 mb 0.00 in0.0 mm 0.00 in0.0 mm 0.00 in0.0 mm
05:45 PM 31.1°F-0.5°C 22.8°F-5.1°C 71% 7.6 mph SE12.2 kmh SE 10.7 mph17.2 kmh 30.02 in1016.6 mb 0.00 in0.0 mm 0.00 in0.0 mm 0.00 in0.0 mm
06:00 PM 31.1°F-0.5°C 22.8°F-5.1°C 71% 8.3 mph SE13.4 kmh SE 9.8 mph15.8 kmh 30.01 in1016.3 mb 0.00 in0.0 mm 0.00 in0.0 mm 0.00 in0.0 mm
06:15 PM 30.9°F-0.6°C 22.6°F-5.2°C 71% 4.5 mph SSE7.2 kmh SSE 9.2 mph14.8 kmh 30.01 in1016.3 mb 0.00 in0.0 mm 0.00 in0.0 mm 0.00 in0.0 mm
06:30 PM 30.7°F-0.7°C 22.8°F-5.1°C 72% 4.5 mph SE7.2 kmh SE 8.3 mph13.4 kmh 30.00 in1015.9 mb 0.00 in0.0 mm 0.00 in0.0 mm 0.00 in0.0 mm
06:45 PM 30.6°F-0.8°C 22.6°F-5.2°C 72% 5.4 mph SE8.7 kmh SE 7.6 mph12.2 kmh 30.01 in1016.3 mb 0.00 in0.0 mm 0.00 in0.0 mm 0.00 in0.0 mm
07:00 PM 30.4°F-0.9°C 22.8°F-5.1°C 73% 3.8 mph SE6.1 kmh SE 8.3 mph13.4 kmh 29.99 in1015.6 mb 0.00 in0.0 mm 0.00 in0.0 mm 0.00 in0.0 mm
07:15 PM 30.2°F-1.0°C 22.6°F-5.2°C 73% 5.4 mph SE8.7 kmh SE 10.7 mph17.2 kmh 29.99 in1015.6 mb 0.00 in0.0 mm 0.00 in0.0 mm 0.00 in0.0 mm
07:30 PM 30.0°F-1.1°C 22.4°F-5.3°C 73% 3.1 mph ESE5.0 kmh ESE 7.6 mph12.2 kmh 29.99 in1015.6 mb 0.00 in0.0 mm 0.00 in0.0 mm 0.00 in0.0 mm
07:45 PM 29.7°F-1.3°C 22.1°F-5.5°C 73% 3.8 mph ESE6.1 kmh ESE 6.0 mph9.7 kmh 29.98 in1015.2 mb 0.00 in0.0 mm 0.00 in0.0 mm 0.00 in0.0 mm
08:00 PM 29.5°F-1.4°C 22.2°F-5.4°C 74% 2.2 mph ESE3.5 kmh ESE 7.6 mph12.2 kmh 29.98 in1015.2 mb 0.00 in0.0 mm 0.00 in0.0 mm 0.00 in0.0 mm
08:15 PM 29.5°F-1.4°C 22.2°F-5.4°C 74% 3.1 mph ESE5.0 kmh ESE 7.6 mph12.2 kmh 29.97 in1014.9 mb 0.00 in0.0 mm 0.00 in0.0 mm 0.00 in0.0 mm
08:30 PM 29.5°F-1.4°C 22.5°F-5.3°C 75% 4.5 mph E7.2 kmh E 10.7 mph17.2 kmh 29.97 in1014.9 mb 0.00 in0.0 mm 0.00 in0.0 mm 0.00 in0.0 mm
08:45 PM 29.7°F-1.3°C 23.0°F-5.0°C 76% 6.0 mph SE9.7 kmh SE 9.8 mph15.8 kmh 29.96 in1014.6 mb 0.00 in0.0 mm 0.00 in0.0 mm 0.00 in0.0 mm
09:00 PM 29.7°F-1.3°C 23.0°F-5.0°C 76% 6.0 mph SE9.7 kmh SE 9.8 mph15.8 kmh 29.96 in1014.6 mb 0.00 in0.0 mm 0.00 in0.0 mm 0.00 in0.0 mm
09:15 PM 29.7°F-1.3°C 23.0°F-5.0°C 76% 5.4 mph SE8.7 kmh SE 6.9 mph11.1 kmh 29.96 in1014.6 mb 0.00 in0.0 mm 0.00 in0.0 mm 0.00 in0.0 mm
09:30 PM 29.5°F-1.4°C 23.2°F-4.9°C 77% 2.2 mph SE3.5 kmh SE 7.6 mph12.2 kmh 29.96 in1014.6 mb 0.00 in0.0 mm 0.00 in0.0 mm 0.00 in0.0 mm
09:45 PM 29.5°F-1.4°C 23.2°F-4.9°C 77% 4.5 mph SE7.2 kmh SE 7.6 mph12.2 kmh 29.95 in1014.2 mb 0.00 in0.0 mm 0.00 in0.0 mm 0.00 in0.0 mm
10:00 PM 29.5°F-1.4°C 23.2°F-4.9°C 77% 3.8 mph SE6.1 kmh SE 9.8 mph15.8 kmh 29.96 in1014.6 mb 0.00 in0.0 mm 0.00 in0.0 mm 0.00 in0.0 mm
10:15 PM 29.7°F-1.3°C 23.6°F-4.7°C 78% 6.0 mph SE9.7 kmh SE 8.3 mph13.4 kmh 29.95 in1014.2 mb 0.00 in0.0 mm 0.00 in0.0 mm 0.00 in0.0 mm
10:30 PM 30.0°F-1.1°C 24.3°F-4.3°C 79% 6.0 mph SE9.7 kmh SE 8.3 mph13.4 kmh 29.95 in1014.2 mb 0.00 in0.0 mm 0.00 in0.0 mm 0.00 in0.0 mm
10:45 PM 30.4°F-0.9°C 24.9°F-3.9°C 80% 6.0 mph SE9.7 kmh SE 10.7 mph17.2 kmh 29.94 in1013.9 mb 0.00 in0.0 mm 0.00 in0.0 mm 0.00 in0.0 mm
11:00 PM 30.7°F-0.7°C 25.3°F-3.7°C 80% 8.3 mph SE13.4 kmh SE 11.4 mph18.3 kmh 29.93 in1013.5 mb 0.00 in0.0 mm 0.00 in0.0 mm 0.00 in0.0 mm
11:15 PM 31.1°F-0.5°C 25.7°F-3.5°C 80% 4.5 mph ESE7.2 kmh ESE 10.7 mph17.2 kmh 29.93 in1013.5 mb 0.00 in0.0 mm 0.00 in0.0 mm 0.00 in0.0 mm
11:30 PM 31.3°F-0.4°C 25.8°F-3.4°C 80% 3.8 mph ESE6.1 kmh ESE 8.3 mph13.4 kmh 29.92 in1013.2 mb 0.00 in0.0 mm 0.00 in0.0 mm 0.00 in0.0 mm
11:45 PM 31.6°F-0.2°C 26.2°F-3.2°C 80% 4.5 mph SE7.2 kmh SE 9.2 mph14.8 kmh 29.91 in1012.9 mb 0.00 in0.0 mm 0.00 in0.0 mm 0.00 in0.0 mm